Time,TemperatureF,DewpointF,PressureIn,WindDirection,WindDirectionDegrees,WindSpeedMPH,WindSpeedGustMPH,Humidity,HourlyPrecipIn,Conditions,Clouds,dailyrainin,SoftwareType,DateUTC
2014-08-02 00:02:00,78.3,57.5,29.65,West,275,5.4,5.4,49,0.00,,---,0.00,VWS V14.01,2014-08-01 21:02:00,
2014-08-02 00:08:00,78.1,57.4,29.65,West,270,4.0,4.0,49,0.00,,---,0.00,VWS V14.01,2014-08-01 21:08:00,
2014-08-02 00:13:00,78.1,57.4,29.65,West,274,6.3,10.5,49,0.00,,---,0.00,VWS V14.01,2014-08-01 21:13:00,
2014-08-02 00:18:00,78.1,57.4,29.65,NW,308,8.3,10.1,49,0.00,,---,0.00,VWS V14.01,2014-08-01 21:18:00,
2014-08-02 00:24:00,77.9,57.8,29.65,West,264,5.4,5.8,50,0.00,,---,0.00,VWS V14.01,2014-08-01 21:24:00,
2014-08-02 00:30:00,77.7,58.2,29.65,WSW,258,8.3,8.3,51,0.00,,---,0.00,VWS V14.01,2014-08-01 21:30:00,
2014-08-02 00:36:00,77.5,58.5,29.65,WNW,285,3.1,8.3,52,0.00,,---,0.00,VWS V14.01,2014-08-01 21:36:00,
2014-08-02 00:41:00,77.4,58.9,29.65,West,269,8.1,9.6,53,0.00,,---,0.00,VWS V14.01,2014-08-01 21:41:00,
2014-08-02 00:47:00,77.4,59.4,29.65,West,272,3.6,6.3,54,0.00,,---,0.00,VWS V14.01,2014-08-01 21:47:00,
2014-08-02 00:52:00,77.2,59.8,29.65,WSW,246,6.3,6.3,55,0.00,,---,0.00,VWS V14.01,2014-08-01 21:52:00,
2014-08-02 00:57:00,77.2,59.8,29.65,WSW,258,3.6,7.6,55,0.00,,---,0.00,VWS V14.01,2014-08-01 21:57:00,
2014-08-02 01:03:00,77.0,59.6,29.65,WSW,244,5.4,5.4,55,0.00,,---,0.00,VWS V14.01,2014-08-01 22:03:00,
2014-08-02 01:08:00,77.0,60.1,29.65,SW,219,0.0,3.1,56,0.00,,---,0.00,VWS V14.01,2014-08-01 22:08:00,
2014-08-02 01:14:00,77.0,60.1,29.65,SW,221,3.1,5.4,56,0.00,,---,0.00,VWS V14.01,2014-08-01 22:14:00,
2014-08-02 01:20:00,76.8,60.0,29.65,South,185,0.0,0.0,56,0.00,,---,0.00,VWS V14.01,2014-08-01 22:20:00,
2014-08-02 01:25:00,76.6,59.8,29.65,South,185,0.0,0.0,56,0.00,,---,0.00,VWS V14.01,2014-08-01 22:25:00,
2014-08-02 01:31:00,76.6,60.3,29.65,South,186,0.0,0.0,57,0.00,,---,0.00,VWS V14.01,2014-08-01 22:31:00,
2014-08-02 01:36:00,76.5,60.1,29.65,South,185,0.0,0.0,57,0.00,,---,0.00,VWS V14.01,2014-08-01 22:36:00,
2014-08-02 01:42:00,76.3,60.0,29.65,SSW,209,0.0,0.0,57,0.00,,---,0.00,VWS V14.01,2014-08-01 22:42:00,
2014-08-02 01:47:00,76.3,60.0,29.65,SSW,209,0.0,0.0,57,0.00,,---,0.00,VWS V14.01,2014-08-01 22:47:00,
2014-08-02 01:53:00,76.3,60.4,29.65,SSW,210,0.0,0.0,58,0.00,,---,0.00,VWS V14.01,2014-08-01 22:53:00,
2014-08-02 01:58:00,76.3,60.4,29.65,SSW,209,0.0,0.0,58,0.00,,---,0.00,VWS V14.01,2014-08-01 22:58:00,
2014-08-02 02:05:00,76.1,60.8,29.65,SSW,209,0.0,0.0,59,0.00,,---,0.00,VWS V14.01,2014-08-01 23:05:00,
2014-08-02 02:11:00,76.1,60.8,29.65,SSW,209,0.0,0.0,59,0.00,,---,0.00,VWS V14.01,2014-08-01 23:11:00,
2014-08-02 02:16:00,76.1,61.2,29.65,SE,125,0.0,0.0,60,0.00,,---,0.00,VWS V14.01,2014-08-01 23:16:00,
2014-08-02 02:21:00,76.3,61.4,29.65,SE,125,0.0,0.0,60,0.00,,---,0.00,VWS V14.01,2014-08-01 23:21:00,
2014-08-02 02:27:00,76.3,61.4,29.65,SE,131,4.9,4.9,60,0.00,,---,0.00,VWS V14.01,2014-08-01 23:27:00,
2014-08-02 02:32:00,76.1,61.2,29.65,SE,131,2.7,3.1,60,0.00,,---,0.00,VWS V14.01,2014-08-01 23:32:00,
2014-08-02 02:38:00,76.1,61.2,29.65,SE,130,0.0,0.0,60,0.00,,---,0.00,VWS V14.01,2014-08-01 23:38:00,
2014-08-02 02:43:00,75.9,61.5,29.65,SE,131,0.0,0.0,61,0.00,,---,0.00,VWS V14.01,2014-08-01 23:43:00,
2014-08-02 02:49:00,75.9,61.5,29.65,SE,131,0.0,0.0,61,0.00,,---,0.00,VWS V14.01,2014-08-01 23:49:00,
2014-08-02 02:55:00,75.7,61.3,29.65,SE,124,2.7,4.0,61,0.00,,---,0.00,VWS V14.01,2014-08-01 23:55:00,
2014-08-02 03:00:00,75.6,61.6,29.65,SE,137,0.0,0.0,62,0.00,,---,0.00,VWS V14.01,2014-08-02 00:00:00,
2014-08-02 03:06:00,75.4,61.5,29.65,SE,133,4.0,4.0,62,0.00,,---,0.00,VWS V14.01,2014-08-02 00:06:00,
2014-08-02 03:11:00,75.4,61.5,29.65,SE,133,0.0,0.0,62,0.00,,---,0.00,VWS V14.01,2014-08-02 00:11:00,
2014-08-02 03:17:00,75.4,61.5,29.65,SE,133,0.0,0.0,62,0.00,,---,0.00,VWS V14.01,2014-08-02 00:17:00,
2014-08-02 03:23:00,75.6,61.2,29.65,SE,133,0.0,0.0,61,0.00,,---,0.00,VWS V14.01,2014-08-02 00:23:00,
2014-08-02 03:28:00,75.6,61.2,29.65,SE,133,0.0,0.0,61,0.00,,---,0.00,VWS V14.01,2014-08-02 00:28:00,